Tiempo atmosférico en la estación meteorológica de A Coruña Aeropuerto, A Coruña (98 m.)



Fecha
DESCASC
Temp. máxima en grados centígrados (hora)
DESCASC
Temp. mínima en grados centígrados (hora)
DESCASC
Temp. media en grados centígrados
DESCASC
Racha de viento máxima en m/sg (hora)
DESCASC
Velocidad máxima media en intervalos de 10 minutos(hora)
DESCASC
Precipitaciones diarias en mm
DESCASC
Precipitaciones de 00:00 a 06:00 en mm
DESCASC
Precipitaciones de 06:00 a 12:00 en mm
DESCASC
Precipitaciones de 12:00 a 18:00 en mm
DESCASC
Precipitaciones de 18:00 a 24:00 en mm
DESCASC
14-02-2019 -- (--) -- (--) -- -- (--) -- (--) -- 0 0 -- 0
13-02-2019 19 (15:40) 3.1 (06:20) 11 8.33 (08:20) 4.72 (08:30) 0 0 0 0 0
12-02-2019 15 (13:30) 0.6 (07:50) 7.8 6.67 (23:20) 3.89 (06:50) 0 0 0 0 0
11-02-2019 12.4 (16:20) 3 (08:30) 7.7 6.67 (09:50) 4.44 (17:00) 0 0 0 0 0
10-02-2019 13.7 (01:50) 6.4 (00:00) 10 20 (04:20) 12.78 (04:10) 9.7 8.5 1.2 0 0
09-02-2019 13.7 (14:40) 11 (00:00) 12.3 16.94 (13:00) 11.39 (15:40) 0.1 0.1 0 0 0
08-02-2019 13.5 (17:50) 7 (00:00) 10.3 16.11 (12:20) 10 (14:20) 0 0 0 0 0
07-02-2019 14.7 (16:10) 6.6 (00:00) 10.6 8.89 (23:20) 5 (02:00) 0.6 0.6 0 0 0
06-02-2019 13.5 (17:50) 9.5 (00:00) 11.5 11.67 (20:10) 7.78 (20:10) 0.7 0 0 0 0.7
05-02-2019 14.6 (15:50) 9.9 (00:00) 12.3 9.17 (22:30) 5.56 (14:20) 0 0 0 0 0
04-02-2019 12.3 (14:00) 5.3 (00:00) 8.8 12.5 (05:20) 9.17 (05:20) 0 0 0 0 0
03-02-2019 11.3 (15:20) -0.2 (00:00) 5.6 8.33 (14:00) 3.89 (14:00) 0 0 0 0 0
02-02-2019 10.4 (11:50) 3 (00:00) 6.7 22.22 (05:40) 14.17 (05:40) 5.9 4.2 1.1 0.3 0.3
01-02-2019 10.2 (16:00) 4.2 (00:00) 7.2 23.61 (21:00) 13.33 (15:40) 13.3 2.9 4.6 4.1 1.7
31-01-2019 14.1 (11:30) 7.9 (00:00) 11 15 (00:10) 8.33 (00:10) 11.4 6.8 1.6 0.7 2.3
30-01-2019 13.3 (21:40) 5.4 (00:00) 9.4 15 (21:10) 10 (12:50) 15.8 0 0 6.4 9.4
29-01-2019 12.1 (11:30) 7.2 (00:00) 9.7 21.67 (11:40) 11.67 (11:50) 3.6 0.3 2.5 0.1 0.7
28-01-2019 12.3 (12:50) 9 (00:00) 10.7 14.44 (07:20) 8.06 (08:50) 2 0.8 1.2 0 0
27-01-2019 12.2 (14:00) 8.6 (00:00) 10.4 16.11 (11:20) 10.56 (11:30) 0.4 0.2 0.2 0 0
26-01-2019 12.5 (16:00) 0.4 (00:00) 6.5 12.78 (23:40) 7.22 (23:40) 1.9 0 0 0 1.9
25-01-2019 12.2 (13:30) 5.3 (00:00) 8.8 7.22 (01:50) 4.17 (14:20) 0 0 0 0 0
24-01-2019 12.4 (12:10) 10.7 (00:00) 11.5 14.44 (03:10) 8.61 (00:20) 2.4 0.8 0.6 0.6 0.4
23-01-2019 12.2 (21:10) 10 (00:00) 11.1 19.72 (05:40) 11.11 (03:50) 7.7 1.8 4 1.1 0.8
22-01-2019 10.7 (17:50) 7.6 (00:00) 9.1 15 (10:10) 8.06 (21:30) 9.7 0.5 1.8 0 7.4
21-01-2019 12 (15:00) 3.3 (00:00) 7.6 7.22 (00:40) 3.89 (01:10) 3 2.6 0.4 0 0
20-01-2019 11.8 (14:00) 8.6 (00:00) 10.2 12.5 (12:10) 6.94 (12:20) 4.4 0 2.3 1.6 0.5
19-01-2019 12.5 (18:10) 7.8 (00:00) 10.2 15.28 (10:40) 11.39 (10:40) 22.5 2.4 5.2 13.5 1.4

Gráficas

Temp. máximas Temp. mínimas Temp. medias Precipitaciones Rachas de viento máximas Velocidades máximas media en intervalos de 10 minutos

Datos horarios

Fecha y hora oficial Temperatura (ºC) Velocidad del viento (km/h) Dirección del viento Racha (km/h) Dirección de racha Precipitación (mm) Presión (hPa) Tendencia (hPa) Humedad (%)
2019-02-17 23:00:00 8.3 5 Sur 22 Sudeste 1.4 1006.8 0.1 97
2019-02-17 22:00:00 8.4 4 Sur 9 Sudoeste 1 1007 0.7 97
2019-02-17 21:00:00 8.5 8 Sur 11 Sur 1.4 1006.7 0.8 98
2019-02-17 20:00:00 8.6 5 Sur 17 Este 2.3 1006.7 1 97
2019-02-17 19:00:00 8.8 7 Sur 17 Sudeste 2.1 1006.3 0.6 97
2019-02-17 18:00:00 8.8 3 Noroeste 15 Norte 2.7 1005.9 0 96
2019-02-17 17:00:00 8.9 11 Oeste 21 Norte 2.2 1005.7 -0.7 94
2019-02-17 16:00:00 9.7 8 Norte 18 Noroeste 0.8 1005.7 -1.5 93
2019-02-17 15:00:00 11.1 8 Norte 13 Norte 0 1005.9 -1.5 77
2019-02-17 14:00:00 10.8 6 Norte 17 Norte 0 1006.4 -0.4 85
2019-02-17 13:00:00 10.9 8 Norte 17 Norte 0 1007.2 0.3 84
2019-02-17 12:00:00 11.6 9 Noroeste 28 Sur 0 1007.4 0.6 87
2019-02-17 11:00:00 12.1 15 Sur 26 Sur 0 1006.8 0.6 79
2019-02-17 10:00:00 11.6 11 Sudeste 30 Sudeste 0 1006.9 0.9 76
2019-02-17 09:00:00 10.8 12 Sudeste 22 Sudeste 0 1006.8 1.1 75
2019-02-17 08:00:00 10.7 10 Este 22 Este 0 1006.2 0.5 76
2019-02-17 07:00:00 10.8 17 Sudeste 33 Sudeste 0 1006 0 71
2019-02-17 06:00:00 11.5 21 Sudeste 35 Sudeste 0 1005.7 -0.5 64
2019-02-17 05:00:00 12 11 Sur 32 Sudeste 0 1005.7 -0.7 61
2019-02-17 04:00:00 11.7 15 Sudeste 28 Sudeste 0 1006 -0.8 61
2019-02-17 03:00:00 12.5 18 Sudeste 32 Sudeste 0 1006.2 -0.8 57
2019-02-17 02:00:00 12.2 21 Sudeste 45 Sur 0 1006.4 -1.1 60
2019-02-17 01:00:00 13.8 23 Sur 42 Sur 0 1006.8 -1.1 53
2019-02-17 00:00:00 12.6 19 Sudoeste 33 Sudoeste 0 1007 -1 60
2019-02-16 23:00:00 10.8 7 Sur 15 Sur 0 1007.5 0 63
2019-02-16 22:00:00 12.8 8 Este 24 Sudoeste 0 1007.9 1.1 56
2019-02-16 21:00:00 13.6 17 Sudoeste 28 Sudoeste 0 1008 1.5 52
2019-02-16 20:00:00 12.6 4 Noroeste 18 Norte 0 1007.5 0.8 74
2019-02-16 19:00:00 14.5 11 Norte 18 Norte 0 1006.8 -0.3 65
2019-02-16 18:00:00 20.2 12 Sudoeste 22 Sudoeste 0 1006.5 -1.4 38
2019-02-16 17:00:00 21.3 17 Sudoeste 28 Sudoeste 0 1006.7 -2.3 34
2019-02-16 16:00:00 21.8 16 Sudoeste 24 Sudoeste 0 1007.1 -3 35
2019-02-16 15:00:00 21.8 14 Sur 22 Sudoeste 0 1007.9 -2.7 39
2019-02-16 14:00:00 20.9 13 Sur 22 Sudeste 0 1009 -1.9 38
2019-02-16 13:00:00 19.3 6 Sur 15 Sudeste 0 1010.1 -0.8 48
2019-02-16 12:00:00 15.9 10 Sur 17 Sur 0 1010.6 -0.3 55
2019-02-16 11:00:00 11 11 Sur 21 Sudeste 0 1010.9 0.3 68
2019-02-16 10:00:00 5.6 12 Sur 21 Sur 0 1010.9 0.3 86
2019-02-16 09:00:00 4.2 10 Sur 13 Sur 0 1010.9 -0.1 91
2019-02-16 08:00:00 4.5 10 Sur 13 Sur 0 1010.6 -1.1 93
2019-02-16 07:00:00 4 10 Sur 18 Sur 0 1010.6 -1.8 96
2019-02-16 06:00:00 4.2 10 Sur 21 Sur 0 1011 -2 96
2019-02-16 05:00:00 5 12 Sur 17 Sur 0 1011.7 -1.9 96
2019-02-16 04:00:00 5.3 11 Sur 15 Sur 0 1012.4 -1.5 95
2019-02-16 03:00:00 5.9 11 Sur 15 Sur 0 1013 -1.2 94
2019-02-16 02:00:00 6.6 12 Sur 15 Sur 0 1013.6 -0.8 92
2019-02-16 01:00:00 7.7 10 Sur 13 Sur 0 1013.9 -0.1 90
2019-02-16 00:00:00 8.6 8 Sur 18 Sudoeste 0 1014.2 0.6 86
2019-02-15 23:00:00 9.5 9 Sur 17 Sur 0 1014.4 1.2 82
2019-02-15 22:00:00 11.3 4 Norte 8 Sur 0 1014 1.4 79
2019-02-15 21:00:00 12.4 0 Calma 9 Oeste 0 1013.6 1.4 78
2019-02-15 20:00:00 13.3 7 Norte 13 Norte 0 1013.2 1 73
2019-02-15 19:00:00 15.7 7 Norte 21 Sur 0 1012.6 0.3 54
2019-02-15 18:00:00 17.8 6 Sur 28 Sur 0 1012.2 -0.6 45
2019-02-15 17:00:00 18.8 16 Sur 30 Sur 0 1012.2 -1.1 40
2019-02-15 16:00:00 20.1 13 Sur 35 Sudoeste 0 1012.3 -1.5 39
2019-02-15 15:00:00 19.4 22 Sudoeste 37 Sudoeste 0 1012.8 -0.7 39
2019-02-15 14:00:00 19.8 22 Sudoeste 37 Sudoeste 0 1013.3 0.2 39
2019-02-15 13:00:00 19 9 Sur 15 Sur 0 1013.8 1.4 42
2019-02-15 12:00:00 17 7 Sudeste 28 Sudeste 0 1013.5 1.7 44
2019-02-15 11:00:00 15.5 9 Sur 18 Sur 0 1013.1 2 43
2019-02-15 10:00:00 13 12 Sur 17 Sur 0 1012.4 1.7 49
2019-02-15 09:00:00 12.2 13 Sur 18 Sur 0 1011.8 1.5 48
2019-02-15 08:00:00 12.5 4 Sur 13 Sur 0 1011.1 0.7 46
2019-02-15 07:00:00 11.6 4 Sudoeste 21 Sudeste 0 1010.7 0.8 48
2019-02-15 06:00:00 10.9 3 Sudoeste 21 Sudeste 0 1010.3 0.1 52
2019-02-15 05:00:00 13 6 Este 35 Sur 0 1010.4 -0.2 45
2019-02-15 04:00:00 13.5 23 Sur 37 Sudeste 0 1009.9 -0.9 45
2019-02-15 03:00:00 12.7 10 Sur 22 Sur 0 1010.2 -0.3 49
2019-02-15 02:00:00 11.2 10 Sur 17 Sur 0 1010.6 0.1 57
2019-02-15 01:00:00 12.1 4 Sudoeste 13 Sur 0 1010.8 0.4 55
2019-02-15 00:00:00 12.5 11 Sur 21 Sur 0 1010.5 0.3 54
2019-02-14 23:00:00 13.7 12 Sur 26 Sudeste 0 1010.5 0.5 53
2019-02-14 22:00:00 13.9 11 Sur 17 Sur 0 1010.4 0.9 53
2019-02-14 21:00:00 14.4 10 Sur 15 Sur 0 1010.2 -- 55
2019-02-14 20:00:00 15.3 9 Sur 15 Sudeste 0 1010 -- 56
2019-02-14 19:00:00 18.6 4 Sur 24 Sur 0 1009.5 -- 41
2019-02-14 18:00:00 -- -- -- -- -- -- -- -- --
2019-02-14 17:00:00 -- -- -- -- -- -- -- -- --
2019-02-14 16:00:00 -- -- -- -- -- -- -- -- --
2019-02-14 15:00:00 20.8 19 Sur 33 Sur 0 1010.3 -2.6 35
2019-02-14 14:00:00 20 17 Sur 35 Sur 0 1011 -2.3 39
2019-02-14 13:00:00 18.1 6 Sudeste 15 Sudeste 0 1012 -1.6 46
2019-02-14 12:00:00 13.7 7 Nordeste 9 Nordeste 0 1012.9 -0.4 58
2019-02-14 11:00:00 11.1 0 Calma 17 Sur 0 1013.3 0.2 64
2019-02-14 10:00:00 7.4 12 Sur 24 Sur 0 1013.6 0.4 73
2019-02-14 09:00:00 5.8 12 Sur 18 Sur 0 1013.3 -0.1 77
2019-02-14 08:00:00 7 10 Sur 32 Sur 0 1013.1 -0.2 71
2019-02-14 07:00:00 4.2 10 Sur 21 Sur 0 1013.2 -0.4 90
2019-02-14 06:00:00 4.7 17 Sur 21 Sur 0 1013.4 -0.6 89
2019-02-14 05:00:00 5.1 15 Sur 22 Sur 0 1013.3 -1 93
2019-02-14 04:00:00 4.7 14 Sur 18 Sur 0 1013.6 -1 94
2019-02-14 03:00:00 4.8 11 Sur 17 Sur 0 1014 -1 94
2019-02-14 02:00:00 5.1 9 Sur 13 Sur 0 1014.3 -0.8 95
2019-02-14 01:00:00 6 10 Sur 13 Sur 0 1014.6 -0.5 93
2019-02-14 00:00:00 6.7 6 Sur 18 Sudeste 0 1015 0 91
2019-02-13 23:00:00 7.7 12 Sur 24 Sur 0 1015.1 0 88
2019-02-13 22:00:00 8.8 10 Sur 15 Sudeste 0 1015.1 0.3 81
2019-02-13 21:00:00 11.9 0 Calma 5 Oeste 0 1015 0.2 63
2019-02-13 20:00:00 12 5 Noroeste 11 Norte 0 1015.1 0.3 62
2019-02-13 19:00:00 13.8 8 Noroeste 15 Noroeste 0 1014.8 -0.1 60
2019-02-13 18:00:00 15.8 7 Norte 15 Norte 0 1014.8 -0.4 53
2019-02-13 17:00:00 17.2 8 Norte 17 Norte 0 1014.8 -1.1 47
2019-02-13 16:00:00 17.4 11 Norte 17 Sur 0 1014.9 -1.9 49
2019-02-13 15:00:00 18.5 9 Sur 22 Sudoeste 0 1015.2 -1.5 44
2019-02-13 14:00:00 17.8 13 Sur 24 Sudoeste 0 1015.9 -0.7 44
2019-02-13 13:00:00 16.5 7 Sur 13 Sudeste 0 1016.8 0.2 50
2019-02-13 12:00:00 13.2 10 Sur 22 Sudeste 0 1016.7 0.4 64
2019-02-13 11:00:00 9.4 11 Sur 18 Sur 0 1016.6 0.5 74
2019-02-13 10:00:00 5.5 12 Sur 28 Sur 0 1016.6 0.5 86
2019-02-13 09:00:00 4 13 Sur 30 Sudeste 0 1016.3 0.3 92
2019-02-13 08:00:00 4.1 14 Sur 21 Sur 0 1016.1 0 90
2019-02-13 07:00:00 3.5 12 Sur 21 Sur 0 1016.1 -0.4 98
2019-02-13 06:00:00 3.9 15 Sur 18 Sur 0 1016 -0.7 97
2019-02-13 05:00:00 3.9 13 Sur 17 Sur 0 1016.1 -0.8 96
2019-02-13 04:00:00 3.5 11 Sur 18 Sur 0 1016.5 -0.6 97
2019-02-13 03:00:00 3.8 14 Sur 17 Sur 0 1016.7 -0.5 98
2019-02-13 02:00:00 4 11 Sur 13 Sur 0 1016.9 -0.5 96
2019-02-13 01:00:00 4.8 11 Sur 22 Sudeste 0 1017.1 -0.1 96
2019-02-13 00:00:00 5.3 13 Sur 24 Sur 0 1017.2 0 95
2019-02-12 23:00:00 6.3 11 Sur 21 Sur 0 1017.4 0.3 92
2019-02-12 22:00:00 7.5 9 Sur 9 Sur 0 1017.2 0.4 76
2019-02-12 21:00:00 8.7 3 Oeste 15 Sur 0 1017.2 0.6 69
2019-02-12 20:00:00 10.4 2 Sur 8 Oeste 0 1017.1 0.5 65
2019-02-12 19:00:00 12 4 Noroeste 11 Norte 0 1016.8 -0.1 65
2019-02-12 18:00:00 13.6 8 Norte 15 Norte 0 1016.6 -0.8 60
2019-02-12 17:00:00 14.3 10 Norte 15 Norte 0 1016.6 -1.2 60
2019-02-12 16:00:00 14.1 10 Norte 15 Norte 0 1016.9 -1.5 62
2019-02-12 15:00:00 13.4 11 Norte 17 Norte 0 1017.4 -1.4 64
2019-02-12 14:00:00 14.6 9 Norte 13 Norte 0 1017.8 -1 46
2019-02-12 13:00:00 13.7 3 Sudeste 8 Este 0 1018.4 -0.3 64
2019-02-12 12:00:00 10.6 4 Sur 15 Sur 0 1018.8 0.5 72
2019-02-12 11:00:00 6.6 9 Sur 13 Sur 0 1018.8 0.6 84
2019-02-12 10:00:00 3.6 12 Sur 21 Sudeste 0 1018.7 0.4 96
2019-02-12 09:00:00 0.9 13 Sur 22 Sudoeste 0 1018.3 -0.1 99
2019-02-12 08:00:00 0.6 11 Sur 15 Sur 0 1018.2 -0.4 99
2019-02-12 07:00:00 1.1 12 Sur 18 Sur 0 1018.3 -0.6 99
2019-02-12 06:00:00 1.5 8 Sur 13 Sur 0 1018.4 -0.7 98
2019-02-12 05:00:00 2.2 6 Sur 11 Sur 0 1018.6 -0.5 99
2019-02-12 04:00:00 2.3 5 Sur 13 Sur 0 1018.9 -0.1 98
2019-02-12 03:00:00 2.1 8 Sur 11 Sur 0 1019.1 0.1 98
2019-02-12 02:00:00 3.3 9 Sur 11 Sur 0 1019.1 -0.2 97
2019-02-12 01:00:00 4.2 3 Sur 11 Sur 0 1019 -0.5 97
2019-02-12 00:00:00 5 12 Sur 21 Sudeste 0 1019 -0.6 97
2019-02-11 23:00:00 5.8 10 Sur 22 Sur 0 1019.3 -0.1 96
2019-02-11 22:00:00 7.2 6 Sur 9 Sur 0 1019.5 0.7 91
2019-02-11 21:00:00 8.3 6 Sudeste 15 Nordeste 0 1019.6 0.9 85
2019-02-11 20:00:00 9.4 5 Noroeste 9 Noroeste 0 1019.4 0.6 80
2019-02-11 19:00:00 10.6 5 Norte 21 Norte 0 1018.8 -0.2 77
2019-02-11 18:00:00 12.2 11 Norte 24 Norte 0 1018.7 -0.6 70
2019-02-11 17:00:00 12.1 16 Norte 24 Norte 0 1018.8 -0.8 69
2019-02-11 16:00:00 12.2 12 Norte 22 Norte 0 1019 -1.2 68
2019-02-11 15:00:00 11.8 13 Norte 21 Norte 0 1019.3 -0.9 62
2019-02-11 14:00:00 12 9 Norte 17 Norte 0 1019.6 -0.2 60
2019-02-11 13:00:00 11.7 4 Oeste 9 Este 0 1020.2 0.6 61
2019-02-11 12:00:00 10.9 5 Sur 15 Sur 0 1020.2 1.2 66
2019-02-11 11:00:00 7.6 5 Sur 11 Sur 0 1019.8 1.2 82
2019-02-11 10:00:00 4.3 8 Sur 24 Sudeste 0 1019.6 1.3 97
2019-02-11 09:00:00 3.2 -- -- -- -- 0 1019 1.3 98
2019-02-11 08:00:00 3.5 11 Sur 22 Sudeste 0 1018.6 1 97
2019-02-11 07:00:00 4.1 8 Sur 18 Sur 0 1018.3 0.7 96
2019-02-11 06:00:00 4.5 11 Sur 13 Sur 0 1017.7 0.7 95
2019-02-11 05:00:00 4.9 8 Sur 11 Sudeste 0 1017.6 0.7 95
2019-02-11 04:00:00 5.3 7 Sur 11 Sudeste 0 1017.6 0.8 94
2019-02-11 03:00:00 5.5 9 Sur 11 Sur 0 1017 0.7 93
2019-02-11 02:00:00 6.1 9 Sur -- -- -- 1016.9 0.9 91
2019-02-11 01:00:00 6.3 8 Sur 11 Sur 0 1016.8 1.4 90
2019-02-11 00:00:00 6.6 9 Sur 13 Sur 0 1016.3 1.3 86
2019-02-10 23:00:00 7.6 5 Sur 13 Norte 0 1016 1.8 79
2019-02-10 22:00:00 8.9 7 Noroeste 13 Oeste 0 1015.4 1.9 72
2019-02-10 21:00:00 9.2 5 Oeste 9 Oeste 0 1015 1.8 69
2019-02-10 20:00:00 9.3 6 Oeste 15 Oeste 0 1014.2 1.7 66
2019-02-10 19:00:00 9.7 9 Oeste 22 Norte 0 1013.5 1.8 62
2019-02-10 18:00:00 11.3 12 Noroeste 28 Noroeste 0 1013.2 2.2 58
2019-02-10 17:00:00 11.2 15 Noroeste 30 Norte 0 1012.5 1.8 61
2019-02-10 16:00:00 12.1 20 Noroeste 33 Noroeste 0 1011.7 1.2 58
2019-02-10 15:00:00 11.8 18 Noroeste 33 Noroeste 0 1011 1.3 59
2019-02-10 14:00:00 12.1 17 Noroeste 32 Oeste 0 1010.7 1.9 61
2019-02-10 13:00:00 11 18 Noroeste 33 Oeste 0 1010.5 2.9 66
2019-02-10 12:00:00 11.3 17 Noroeste 32 Oeste 0 1009.7 3.6 68
2019-02-10 11:00:00 10.4 16 Noroeste 28 Noroeste 0 1008.8 3.6 77
2019-02-10 10:00:00 10.5 13 Noroeste 26 Noroeste 0 1007.6 4.2 80
2019-02-10 09:00:00 9.8 10 Oeste 22 Oeste 0 1006.1 4.5 81
2019-02-10 08:00:00 10.2 12 Noroeste 35 Noroeste 0 1005.2 5.9 86
2019-02-10 07:00:00 9.4 22 Noroeste 52 Norte 1.2 1003.4 4.4 98
2019-02-10 06:00:00 10.7 27 Noroeste 58 Noroeste 3.5 1001.6 2.5 97
2019-02-10 05:00:00 12.6 32 Sudoeste 72 Sudoeste 2.3 999.3 -0.1 91
2019-02-10 04:00:00 12.8 38 Sudoeste 68 Sudoeste 1.3 999 -1.4 87
2019-02-10 03:00:00 13.3 30 Sudoeste 61 Sur 0.6 999.1 -1.8 84
2019-02-10 02:00:00 13.4 27 Sudoeste -- -- -- 999.4 -2 83
2019-02-10 01:00:00 13.5 26 Sudoeste 42 Sudoeste 0.2 1000.4 -1.3 84
2019-02-10 00:00:00 13.1 28 Sur 48 Sudoeste 0 1000.9 -1.6 85
2019-02-09 23:00:00 12.9 26 Sur 45 Sur 0 1001.4 -0.9 85
2019-02-09 22:00:00 12.5 29 Sudoeste 54 Sudoeste 0 1001.7 -0.8 85
2019-02-09 21:00:00 12.6 35 Sudoeste 58 Sudoeste 0 1002.5 -0.2 82
2019-02-09 20:00:00 12.7 30 Sudoeste 50 Sudoeste 0 1002.3 -0.8 82
2019-02-09 19:00:00 12 27 Sur 48 Sudoeste 0 1002.5 -1.8 87
2019-02-09 18:00:00 12.1 24 Sur 54 Sur 0 1002.7 -1.8 87
2019-02-09 17:00:00 13 29 Sur 55 Sudoeste 0 1003.1 -1.7 78
2019-02-09 16:00:00 12.4 35 Sudoeste 61 Sudoeste 0 1004.3 -1.4 82
2019-02-09 15:00:00 13.2 35 Sudoeste 59 Sur 0 1004.5 -1.3 76
2019-02-09 14:00:00 13.3 31 Sudoeste 58 Sudoeste 0 1004.8 -1.4 77
2019-02-09 13:00:00 13 35 Sudoeste 61 Sur 0 1005.7 -0.5 76
2019-02-09 12:00:00 12.6 26 Sur 41 Sur 0 1005.8 -0.3 78
2019-02-09 11:00:00 12.4 18 Sur 37 Sur 0 1006.2 0.1 79
2019-02-09 10:00:00 12 19 Sur 39 Sur 0 1006.2 -0.1 81
2019-02-09 09:00:00 11.7 23 Sur 39 Sur 0 1006.1 -0.2 85
2019-02-09 08:00:00 12.1 20 Sur 33 Sur 0 1006.1 -0.5 84
2019-02-09 07:00:00 11.9 17 Sur 41 Sur 0 1006.3 -0.8 84
2019-02-09 06:00:00 12 17 Sur 35 Sur 0 1006.3 -0.6 84
2019-02-09 05:00:00 11.9 20 Sudoeste 33 Sudoeste 0 1006.6 -0.6 85
2019-02-09 04:00:00 11.8 22 Sudoeste 37 Sur 0 1007.1 -0.5 84
2019-02-09 03:00:00 11.8 25 Sudoeste 39 Sudoeste 0 1006.9 -0.4 85
2019-02-09 02:00:00 11.2 12 Sudoeste -- -- -- 1007.2 0.3 88
2019-02-09 01:00:00 11.5 17 Sudoeste 35 Sudoeste 0.1 1007.6 0.9 89
2019-02-09 00:00:00 11.8 22 Sudoeste 37 Sudoeste 0 1007.3 0.7 86
2019-02-08 23:00:00 11.7 17 Sudoeste 32 Sudoeste 0 1006.9 0.5 85
2019-02-08 22:00:00 12.1 14 Sudoeste 35 Sudoeste 0 1006.7 0.5 80
2019-02-08 21:00:00 12.6 20 Sudoeste 35 Sudoeste 0 1006.6 0.4 75
2019-02-08 20:00:00 12.5 17 Sudoeste 37 Sudoeste 0 1006.4 0.4 76
2019-02-08 19:00:00 12.8 21 Sudoeste 45 Sudoeste 0 1006.2 0.5 75
2019-02-08 18:00:00 13.4 23 Sudoeste 41 Sudoeste 0 1006.2 0.1 73
2019-02-08 17:00:00 13.4 26 Oeste 42 Sudoeste 0 1006 -0.4 74
2019-02-08 16:00:00 11.5 15 Sur 35 Sudoeste 0 1005.7 -0.6 89
2019-02-08 15:00:00 12 28 Sudoeste 55 Sur 0 1006.1 -0.8 83
2019-02-08 14:00:00 12.6 35 Sur 55 Sudoeste 0 1006.4 -0.9 76
2019-02-08 13:00:00 12.8 32 Sudoeste 58 Sur 0 1006.3 -1 74
2019-02-08 12:00:00 12 32 Sur 54 Sur 0 1006.9 -0.5 75
2019-02-08 11:00:00 10.6 32 Sudoeste 50 Sur 0 1007.3 -0.8 79
2019-02-08 10:00:00 9.9 31 Sur 46 Sur 0 1007.3 -1 80
2019-02-08 09:00:00 8.5 26 Sur 41 Sur 0 1007.4 -1.3 84
2019-02-08 08:00:00 8.2 26 Sur 35 Sur 0 1008.1 -1 85
2019-02-08 07:00:00 7.8 18 Sur 32 Sur 0 1008.3 -1.3 85
2019-02-08 06:00:00 7.2 14 Sur 22 Sur 0 1008.7 -1.7 86
2019-02-08 05:00:00 7.5 12 Sur 22 Sudeste 0 1009.1 -1.6 85
2019-02-08 04:00:00 7.5 16 Sudeste 22 Sudeste 0 1009.6 -1.4 84
2019-02-08 03:00:00 7.8 13 Sur 17 Sur 0 1010.4 -0.9 83
2019-02-08 02:00:00 8.2 12 Sur -- -- -- 1010.7 -1 81
2019-02-08 01:00:00 7.6 9 Sur 21 Sur 0 1011 -0.9 83
2019-02-08 00:00:00 7.5 11 Sur 32 Sur 0 1011.3 -0.6 81
2019-02-07 23:00:00 6.8 15 Sudoeste 22 Sur 0 1011.7 -0.4 83
2019-02-07 22:00:00 7.3 12 Sudoeste 15 Sur 0 1011.9 0 84
2019-02-07 21:00:00 9.1 10 Sur 15 Sur 0 1011.9 0 80
2019-02-07 20:00:00 10.1 8 Sudoeste 18 Oeste 0 1012.1 -0.3 74
2019-02-07 19:00:00 10.4 10 Oeste 18 Oeste 0 1011.9 -0.3 72
2019-02-07 18:00:00 11.2 10 Noroeste 24 Noroeste 0 1011.9 -0.7 67
2019-02-07 17:00:00 12.2 13 Noroeste 22 Noroeste 0 1012.4 -1.1 64
2019-02-07 16:00:00 14.3 7 Sudoeste 13 Sudoeste 0 1012.2 -2.2 53
2019-02-07 15:00:00 13.1 8 Noroeste 18 Noroeste 0 1012.6 -1.5 53
2019-02-07 14:00:00 12.5 8 Oeste 21 Norte 0 1013.5 -0.7 54
2019-02-07 13:00:00 12.1 11 Noroeste 24 Noroeste 0 1014.4 0.7 60
2019-02-07 12:00:00 11.5 10 Noroeste 18 Noroeste 0 1014.1 0.8 67
2019-02-07 11:00:00 10 10 Sur 15 Sur 0 1014.2 1.5 85
2019-02-07 10:00:00 7.8 9 Sur 15 Sur 0 1013.7 1.1 93
2019-02-07 09:00:00 7.5 3 Noroeste 13 Noroeste 0 1013.3 1.2 88
2019-02-07 08:00:00 8.6 9 Noroeste 13 Oeste 0 1012.7 0.7 83
2019-02-07 07:00:00 9.6 6 Noroeste 13 Noroeste 0 1012.6 0.5 92
2019-02-07 06:00:00 9.6 5 Noroeste 22 Oeste 0.2 1012.1 0.5 94
2019-02-07 05:00:00 9.8 15 Oeste 22 Oeste 0.2 1012 0.3 94
2019-02-07 04:00:00 9.8 12 Sudoeste 22 Sudoeste 0.2 1012.1 0.3 91
2019-02-07 03:00:00 9.8 13 Sudoeste 24 Sudoeste 0 1011.6 0 86
2019-02-07 02:00:00 10.3 18 Sudoeste -- -- -- 1011.7 0.1 85
2019-02-07 01:00:00 9.9 15 Oeste 28 Oeste 0 1011.8 0.3 88
2019-02-07 00:00:00 10 13 Oeste 24 Oeste 0 1011.6 1 91
2019-02-06 23:00:00 9.5 17 Oeste 33 Oeste 0.3 1011.6 1.1 94
2019-02-06 22:00:00 10.1 18 Noroeste 35 Noroeste 0.4 1011.5 1.2 94
2019-02-06 21:00:00 11.6 22 Sur 42 Sudoeste 0 1010.6 0.3 85
2019-02-06 20:00:00 11.7 25 Sudoeste 41 Sudoeste 0 1010.5 0.1 83
2019-02-06 19:00:00 11.9 19 Sudoeste 37 Sudoeste 0 1010.3 -0.1 82
2019-02-06 18:00:00 13 21 Sudoeste 35 Sudoeste 0 1010.3 -1 75
2019-02-06 17:00:00 13.2 22 Sudoeste 37 Sudoeste 0 1010.4 -1.2 71
2019-02-06 16:00:00 12.8 23 Sudoeste 35 Sudoeste 0 1010.4 -1.9 74
2019-02-06 15:00:00 12.8 13 Sudoeste 30 Sudoeste 0 1011.3 -1.5 75
2019-02-06 14:00:00 12.6 22 Sudoeste 35 Sudoeste 0 1011.6 -1.3 77
2019-02-06 13:00:00 12.3 23 Sudoeste 33 Sudoeste 0 1012.3 -0.8 80
2019-02-06 12:00:00 12 12 Sudoeste 24 Oeste 0 1012.8 -0.2 81
2019-02-06 11:00:00 11.4 14 Sur 26 Sur 0 1012.9 0 83
2019-02-06 10:00:00 10.7 14 Sur 28 Sur 0 1013.1 -0.2 85
2019-02-06 09:00:00 10.3 12 Sur 18 Sur 0 1013 -0.5 87
2019-02-06 08:00:00 10 8 Sur 21 Sur 0 1012.9 -0.8 89
2019-02-06 07:00:00 10.1 10 Sur 24 Sur 0 1013.3 -0.9 89
2019-02-06 06:00:00 10.9 4 Sur 8 Sudeste 0 1013.5 -1.5 85
2019-02-06 05:00:00 10.9 5 Sur 13 Sudeste 0 1013.7 -1.4 86
2019-02-06 04:00:00 11 9 Sur 13 Sur 0 1014.2 -1.5 87
2019-02-06 03:00:00 11 4 Sudoeste 9 Sur 0 1015 -1.1 88
2019-02-06 02:00:00 11 8 Sur -- -- -- 1015.1 -1.1 87
2019-02-06 01:00:00 11.6 6 Sudoeste 9 Sudoeste 0 1015.7 -0.5 84
2019-02-06 00:00:00 11.7 7 Sudoeste 11 Oeste 0 1016.1 -0.2 82
2019-02-05 23:00:00 11.7 5 Sur 33 Sur 0 1016.2 0.1 82
2019-02-05 22:00:00 12.2 9 Sur 17 Sur 0 1016.2 0.4 81
2019-02-05 21:00:00 12.4 7 Sur 15 Sur 0 1016.3 0.7 82
2019-02-05 20:00:00 12.5 6 Sur 18 Sur 0 1016.1 0.5 82
2019-02-05 19:00:00 12.7 11 Sudoeste 21 Sudoeste 0 1015.8 0 81
2019-02-05 18:00:00 13.1 15 Sur 28 Sudoeste 0 1015.6 -0.6 79
2019-02-05 17:00:00 14 16 Sudoeste 26 Sudoeste 0 1015.6 -1.2 76
2019-02-05 16:00:00 14.5 15 Sudoeste 30 Sudoeste 0 1015.8 -1.4 74
2019-02-05 15:00:00 13.9 16 Sudoeste 30 Sur 0 1016.2 -1.2 77
2019-02-05 14:00:00 13.6 18 Sudoeste 28 Sudoeste 0 1016.8 -0.7 80
2019-02-05 13:00:00 13.8 16 Sur 26 Sur 0 1017.2 0 79
2019-02-05 12:00:00 13.2 15 Sur 24 Sudoeste 0 1017.4 0.6 80
2019-02-05 11:00:00 12.3 15 Sur 22 Sur 0 1017.5 1.2 84
2019-02-05 10:00:00 10.9 11 Sur 22 Sudeste 0 1017.2 0.9 91
2019-02-05 09:00:00 10.5 8 Sur 13 Sudeste 0 1016.8 0.7 93
2019-02-05 08:00:00 10.3 10 Sur 32 Sur 0 1016.3 0.2 93
2019-02-05 07:00:00 10.3 8 Sur 17 Sur 0 1016.3 -0.1 92
2019-02-05 06:00:00 10.3 11 Sur 18 Sur 0 1016.1 -0.4 93
2019-02-05 05:00:00 10 13 Sur 18 Sur 0 1016.1 -0.8 93
2019-02-05 04:00:00 10.1 12 Sur 21 Sur 0 1016.4 -0.5 94
2019-02-05 03:00:00 10 14 Sur 22 Sur 0 1016.5 -0.5 95
2019-02-05 02:00:00 10.5 14 Sur -- -- -- 1016.9 0.3 90
2019-02-05 01:00:00 10.5 13 Sur 17 Sur 0 1016.9 0.4 91
2019-02-05 00:00:00 10.6 12 Sur 22 Sur 0 1017 0.6 89
2019-02-04 23:00:00 10.6 15 Sur 30 Sur 0 1016.6 0.4 87
2019-02-04 22:00:00 10.5 17 Sur 35 Sudoeste 0 1016.5 0.6 88
2019-02-04 21:00:00 10.6 21 Sudoeste 33 Sudoeste 0 1016.4 0.8 86
2019-02-04 20:00:00 10.4 23 Sudoeste 42 Sudoeste 0 1016.2 0.8 86
2019-02-04 19:00:00 11 24 Sudoeste 37 Sudoeste 0 1015.9 0.6 83
2019-02-04 18:00:00 11.5 21 Sudoeste 37 Sur 0 1015.6 -0.1 81
2019-02-04 17:00:00 11.9 25 Sur 37 Sudoeste 0 1015.4 -0.5 79
2019-02-04 16:00:00 12 22 Sudoeste 32 Sudoeste 0 1015.3 -1.1 79
2019-02-04 15:00:00 12.2 16 Sudoeste 35 Sur 0 1015.7 -0.7 79
2019-02-04 14:00:00 12.2 18 Sur 33 Sur 0 1015.9 -0.4 77
2019-02-04 13:00:00 11.8 19 Sur 28 Sur 0 1016.4 0.3 77
2019-02-04 12:00:00 10.7 16 Sur 33 Sur 0 1016.4 0.7 78
2019-02-04 11:00:00 9.7 14 Sur 24 Sur 0 1016.3 1.2 79
2019-02-04 10:00:00 9.3 11 Sur 32 Sudoeste 0 1016.1 0.9 79
2019-02-04 09:00:00 8.6 21 Sudoeste 35 Sudoeste 0 1015.7 0.4 78
2019-02-04 08:00:00 8.8 14 Sudoeste 30 Sudoeste 0 1015.1 -0.3 77
2019-02-04 07:00:00 8.2 7 Sur 33 Sudoeste 0 1015.2 -0.9 75
2019-02-04 06:00:00 8.8 21 Sudoeste 45 Sudoeste 0 1015.3 -1.1 76
2019-02-04 05:00:00 8.4 30 Sudoeste 41 Sudoeste 0 1015.4 -1.3 74
2019-02-04 04:00:00 8.3 22 Sudoeste 35 Sudoeste 0 1016.1 -0.6 74
2019-02-04 03:00:00 6.8 8 Sur 15 Sur 0 1016.4 -0.2 76
2019-02-04 02:00:00 5.6 2 Este 18 Sur 0 1016.7 -0.6 78
2019-02-04 01:00:00 5.9 11 Sur 15 Sur 0 1016.7 -0.4 75
2019-02-04 00:00:00 5.8 8 Sur 18 Sur 0 1016.6 -0.5 78
2019-02-03 23:00:00 7.2 6 Sur 21 Sur 0 1017.3 0.4 73
2019-02-03 22:00:00 7 5 Sur 11 Sur 0 1017.1 0.6 82
2019-02-03 21:00:00 7.4 7 Sur 13 Sur 0 1017.1 0.6 76
2019-02-03 20:00:00 8.5 6 Sur 11 Sur 0 1016.9 0.2 68
2019-02-03 19:00:00 9.1 5 Oeste 9 Sudoeste 0 1016.5 -0.3 59
2019-02-03 18:00:00 9.6 9 Sudoeste 17 Sur 0 1016.5 -0.8 59
2019-02-03 17:00:00 10.4 9 Sur 18 Sur 0 1016.7 -1.2 57
2019-02-03 16:00:00 11.2 10 Sudoeste 21 Sur 0 1016.8 -1.5 52
2019-02-03 15:00:00 11.1 10 Sur 21 Sudoeste 0 1017.3 -1.2 53
2019-02-03 14:00:00 10.6 14 Sur 30 Sur 0 1017.9 -0.1 59
2019-02-03 13:00:00 7.8 9 Sur 17 Sudeste 0 1018.3 0.8 83
2019-02-03 12:00:00 5.6 11 Sur 22 Sur 0 1018.5 1.3 94
2019-02-03 11:00:00 2.5 10 Sur 13 Sur 0 1018 1.2 99
2019-02-03 10:00:00 0.8 9 Sur 13 Sudeste 0 1017.5 1.3 100
2019-02-03 09:00:00 0.1 11 Sur 15 Sur 0 1017.2 1.3 100
2019-02-03 08:00:00 -0.1 12 Sur 17 Sudeste 0 1016.8 1.3 100
2019-02-03 07:00:00 0.1 10 Sur 21 Sur 0 1016.2 0.7 100
2019-02-03 06:00:00 0 12 Sur 13 Sur 0 1015.9 0.8 100
2019-02-03 05:00:00 0.1 8 Sur 13 Sudeste 0 1015.5 0.8 100
2019-02-03 04:00:00 0.5 11 Sur 15 Sur 0 1015.5 0.8 99
2019-02-03 03:00:00 1 9 Sur 13 Sur 0 1015.1 1.2 99
2019-02-03 02:00:00 2 8 Sur 13 Sudeste 0 1014.7 1.3 99
2019-02-03 01:00:00 2.8 10 Sudeste 13 Sudeste 0 1014.7 2.3 98
2019-02-03 00:00:00 3.4 10 Sur 11 Sur 0 1013.9 1.8 97
2019-02-02 23:00:00 4.3 8 Sur 21 Sur 0 1013.4 2 97
2019-02-02 22:00:00 5.4 6 Sur 15 Sur 0.3 1012.4 1.6 94
2019-02-02 21:00:00 6 8 Sur 17 Norte 0.2 1012.1 2.2 89
2019-02-02 20:00:00 7.4 7 Noroeste 32 Norte 0 1011.4 1.9 78
2019-02-02 19:00:00 7.3 18 Noroeste 48 Noroeste 0 1010.8 2.2 76
2019-02-02 18:00:00 8.9 21 Norte 48 Norte 0 1009.9 1.4 66
2019-02-02 17:00:00 9.2 15 Noroeste 39 Norte 0 1009.5 1.4 69
2019-02-02 16:00:00 9.9 22 Norte 42 Noroeste 0 1008.6 0.6 59
2019-02-02 15:00:00 8.8 16 Norte 33 Norte 0 1008.5 1.1 69
2019-02-02 14:00:00 9.7 19 Norte 45 Norte 0 1008.1 1.7 65
2019-02-02 13:00:00 8.6 14 Norte 41 Nordeste 0.3 1008 2.8 65
2019-02-02 12:00:00 8.4 27 Norte 50 Norte 0.7 1007.4 3.6 60
2019-02-02 11:00:00 9.2 20 Norte 35 Norte 0 1006.4 3.8 47
2019-02-02 10:00:00 8.8 17 Norte 42 Norte 0 1005.2 3.5 56
2019-02-02 09:00:00 7.3 17 Noroeste 55 Norte 0 1003.8 2.9 64
2019-02-02 08:00:00 7.4 27 Norte 52 Norte 0 1002.6 2.7 60
2019-02-02 07:00:00 7.2 12 Norte 52 Norte 0.4 1001.7 2.5 67
2019-02-02 06:00:00 6 17 Norte 80 Norte 0.2 1000.9 3.1 72
2019-02-02 05:00:00 5.6 15 Norte 45 Norte 3.1 999.9 3.2 85
2019-02-02 04:00:00 6.5 6 Norte 65 Noroeste 0.4 999.2 4.1 79
2019-02-02 03:00:00 6.1 35 Norte 68 Noroeste 0.2 997.8 4 77
2019-02-02 02:00:00 6.7 27 Norte 58 Norte 0.3 996.7 4 79
2019-02-02 01:00:00 7.5 27 Norte 78 Norte 0 995.1 4.1 62
2019-02-02 00:00:00 8.9 31 Norte 59 Noroeste 0 993.8 4.5 51
2019-02-01 23:00:00 8.5 35 Norte 71 Noroeste 0 992.7 5.2 64
2019-02-01 22:00:00 7.6 20 Norte 74 Norte 0.1 991 5.4 73
2019-02-01 21:00:00 6.8 37 Norte 85 Norte 1.2 989.3 5.4 81
2019-02-01 20:00:00 7 42 Norte 71 Noroeste 0.4 987.5 5.8 84
2019-02-01 19:00:00 9.6 41 Norte 80 Noroeste 0 985.6 6.4 65
2019-02-01 18:00:00 10 42 Norte 72 Norte 0 983.9 6 66
2019-02-01 17:00:00 10 35 Norte 74 Norte 0 981.7 5.7 72
2019-02-01 16:00:00 9.6 48 Norte 82 Norte 0 979.2 2.5 74
2019-02-01 15:00:00 8.2 30 Noroeste 65 Noroeste 0.7 977.9 1.7 85
2019-02-01 14:00:00 6.8 35 Noroeste 65 Noroeste 2.3 976 1.1 90
2019-02-01 13:00:00 6.3 28 Oeste 68 Oeste 1.1 976.7 3 91
2019-02-01 12:00:00 5.3 13 Oeste 67 Noroeste 1.3 976.2 2.7 95
2019-02-01 11:00:00 5.3 18 Noroeste 52 Oeste 2.1 974.9 2 88
2019-02-01 10:00:00 7.8 22 Oeste 41 Oeste 0 973.7 0.4 70
2019-02-01 09:00:00 7.3 22 Oeste 39 Oeste 0 973.5 -1.4 77
2019-02-01 08:00:00 6 17 Sudoeste 46 Sudoeste 1.1 972.9 -3.3 86
2019-02-01 07:00:00 5.6 11 Sur 30 Sudoeste 0.1 973.3 -2.6 82
2019-02-01 06:00:00 5.2 21 Sudoeste 41 Sudoeste 0 974.9 0 86
2019-02-01 05:00:00 4.7 25 Oeste 67 Oeste 0.9 976.2 -0.9 89
2019-02-01 04:00:00 7.2 31 Oeste 72 Oeste 1.6 975.9 -2.5 84
2019-02-01 03:00:00 8.5 29 Sudoeste 48 Sudoeste 0 974.9 -4.7 73
2019-02-01 02:00:00 7.8 21 Sudoeste 39 Sudoeste 0.4 977.1 -3.6 80
2019-02-01 01:00:00 7.9 17 Sudoeste 32 Sudoeste 0 978.4 -2.8 84
2019-02-01 00:00:00 8.5 18 Sudoeste 32 Sudoeste 0 979.6 -2.3 79
2019-01-31 23:00:00 8 17 Sudoeste 45 Sudoeste 0.4 980.7 -1.2 82
2019-01-31 22:00:00 8.7 10 Oeste 30 Oeste 0.7 981.2 -1.1 85
2019-01-31 21:00:00 9 15 Oeste 48 Oeste 1.2 981.9 -0.6 81
2019-01-31 20:00:00 10.2 11 Sudoeste 28 Sudoeste 0 981.9 -0.7 75
2019-01-31 19:00:00 10.8 15 Oeste 42 Oeste 0 982.3 -0.8 72
2019-01-31 18:00:00 10.8 20 Oeste 48 Noroeste 0.3 982.5 -0.9 81
2019-01-31 17:00:00 12.1 14 Sudoeste 33 Oeste 0 982.6 -1.2 73
2019-01-31 16:00:00 12.4 15 Oeste 37 Noroeste 0 983.1 -0.7 74
2019-01-31 15:00:00 12.5 14 Oeste 45 Oeste 0 983.4 -0.8 75
2019-01-31 14:00:00 12.1 29 Oeste 48 Noroeste 0 983.8 -0.6 80
2019-01-31 13:00:00 12.3 19 Oeste 45 Noroeste 0.4 983.8 -1 93
2019-01-31 12:00:00 13.3 23 Noroeste 42 Noroeste 0.8 984.2 -0.8 91
2019-01-31 11:00:00 13.7 22 Oeste 41 Oeste 0.1 984.4 -0.5 91
2019-01-31 10:00:00 13.4 20 Oeste 45 Oeste 0.4 984.8 -0.3 91
2019-01-31 09:00:00 13.3 19 Oeste 39 Oeste 0.1 985 -0.6 92
2019-01-31 08:00:00 13.4 17 Oeste 50 Oeste 0 984.9 -0.5 92
2019-01-31 07:00:00 13.2 26 Oeste 48 Oeste 0.2 985.1 -0.9 94
2019-01-31 06:00:00 13.2 25 Oeste 50 Oeste 0.4 985.6 -0.7 94
2019-01-31 05:00:00 13.1 16 Oeste 37 Oeste 0.6 985.4 -1.5 94
2019-01-31 04:00:00 13.2 18 Oeste 41 Oeste 1.5 986 -1.5 92
2019-01-31 03:00:00 13.2 27 Oeste 50 Oeste 2.3 986.3 -1.5 93
2019-01-31 02:00:00 13 22 Oeste 45 Oeste 1.2 986.9 -1.1 94
2019-01-31 01:00:00 13.1 21 Oeste 54 Oeste 0.8 987.5 -0.8 94
2019-01-31 00:00:00 13.2 28 Oeste 52 Oeste 0.7 987.8 -0.8 93
2019-01-30 23:00:00 13.1 22 Oeste 52 Oeste 1.3 988 -1.1 94
2019-01-30 22:00:00 13.1 24 Oeste 54 Oeste 1.3 988.3 -1.6 94
2019-01-30 21:00:00 13 26 Oeste 48 Oeste 2.2 988.6 -1.3 94
2019-01-30 20:00:00 12 12 Sudoeste 30 Oeste 2.8 989.1 -1 95
2019-01-30 19:00:00 12.1 16 Oeste 45 Oeste 1.1 989.9 -0.8 92
2019-01-30 18:00:00 12.1 26 Oeste 46 Oeste 1.5 989.9 -2.5 94
2019-01-30 17:00:00 11.3 22 Sudoeste 33 Sur 2.9 990.1 -4 93
2019-01-30 16:00:00 10.7 23 Sur 41 Sur 1.5 990.7 -5.1 92
2019-01-30 15:00:00 10.5 23 Sur 37 Sur 0 992.4 -4.7 87
2019-01-30 14:00:00 9.8 24 Sur 39 Sudoeste 0.5 994.1 -4 88
2019-01-30 13:00:00 9.2 28 Sur 50 Sudoeste 0 995.8 -3.3 86
2019-01-30 12:00:00 8.9 24 Sur 46 Sudoeste 0 997.1 -2.9 84
2019-01-30 11:00:00 8.2 26 Sudoeste 46 Sudoeste 0 998.1 -2.4 84
2019-01-30 10:00:00 6.9 8 Sur 30 Sudoeste 0 999.1 -2.1 84
2019-01-30 09:00:00 6.7 20 Sudoeste 33 Sudoeste 0 1000 -1.9 83
2019-01-30 08:00:00 6.7 20 Sudoeste 28 Sudoeste 0 1000.5 -2 80
2019-01-30 07:00:00 6.7 16 Sudoeste 22 Sudoeste 0 1001.2 -2 82
2019-01-30 06:00:00 6.3 15 Sudoeste 22 Sudoeste 0 1001.9 -1.8 84
2019-01-30 05:00:00 7.7 12 Oeste 21 Oeste 0 1002.5 -1.6 75
2019-01-30 04:00:00 6.3 11 Sudoeste 17 Oeste 0 1003.2 -1.3 85
2019-01-30 03:00:00 8 13 Oeste 22 Oeste 0 1003.7 -1.1 74
2019-01-30 02:00:00 7.8 14 Oeste 22 Oeste 0 1004.1 -1.1 75
2019-01-30 01:00:00 8 10 Oeste 17 Oeste 0 1004.5 -0.8 73
2019-01-30 00:00:00 8 10 Oeste 15 Oeste 0 1004.8 -0.7 69
2019-01-29 23:00:00 7.2 8 Oeste 39 Norte 0.7 1005.2 0.3 82
2019-01-29 22:00:00 8.8 10 Oeste 41 Norte 0 1005.3 0.7 61
2019-01-29 21:00:00 8.7 12 Noroeste 52 Noroeste 0 1005.5 1.3 70
2019-01-29 20:00:00 9.5 19 Norte 35 Noroeste 0 1004.9 1.3 59
2019-01-29 19:00:00 9.5 22 Noroeste 54 Noroeste 0 1004.6 1.5 60
2019-01-29 18:00:00 9.9 26 Norte 52 Norte 0 1004.2 1 72
2019-01-29 17:00:00 10.5 23 Norte 48 Noroeste 0 1003.6 0.6 71
2019-01-29 16:00:00 10.9 25 Norte 50 Norte 0 1003.1 0.2 71
2019-01-29 15:00:00 10.4 31 Norte 58 Noroeste 0.1 1003.2 1.4 76
2019-01-29 14:00:00 11.2 28 Norte 61 Noroeste 0 1003 2.7 74
2019-01-29 13:00:00 11.2 31 Noroeste 68 Noroeste 0 1002.9 2.2 75
2019-01-29 12:00:00 11 40 Noroeste 78 Oeste 1 1001.8 0.2 86
2019-01-29 11:00:00 11.4 24 Oeste 48 Oeste 1.4 1000.3 -2.2 92
2019-01-29 10:00:00 10.9 22 Oeste 42 Oeste 0.1 1000.7 -2.9 91
2019-01-29 09:00:00 10.6 27 Oeste 45 Oeste 0 1001.6 -2.6 88
2019-01-29 08:00:00 10.7 21 Oeste 37 Sudoeste 0 1002.5 -2.7 84
2019-01-29 07:00:00 10.5 21 Oeste 37 Oeste 0 1003.6 -2 85
2019-01-29 06:00:00 9.8 14 Oeste 26 Sudoeste 0.3 1004.2 -2.5 92
2019-01-29 05:00:00 9.7 16 Sudoeste 37 Sudoeste 0 1005.2 -2.4 89
2019-01-29 04:00:00 9.7 24 Sudoeste 35 Sudoeste 0 1005.6 -2.6 85
2019-01-29 03:00:00 9.5 17 Sudoeste 32 Oeste 0 1006.7 -2.4 85
2019-01-29 02:00:00 9.8 14 Sudoeste 28 Oeste 0 1007.6 -1.9 80
2019-01-29 01:00:00 9.5 10 Sudoeste 17 Sudoeste 0 1008.2 -1.7 84
2019-01-29 00:00:00 9.9 10 Oeste 17 Oeste 0 1009.1 -1.2 82
2019-01-28 23:00:00 9.8 10 Oeste 15 Oeste 0 1009.5 -1.3 82
2019-01-28 22:00:00 9.9 11 Oeste 21 Oeste 0 1009.9 -1.1 85
2019-01-28 21:00:00 10.1 10 Oeste 15 Oeste 0 1010.3 -0.7 83
2019-01-28 20:00:00 10.3 8 Oeste 13 Oeste 0 1010.8 -0.1 81
2019-01-28 19:00:00 10.4 9 Noroeste 21 Noroeste 0 1011 0.2 80
2019-01-28 18:00:00 11.1 13 Noroeste 26 Noroeste 0 1011 -0.1 69
2019-01-28 17:00:00 11.5 13 Noroeste 26 Noroeste 0 1010.9 -0.5 71
2019-01-28 16:00:00 11.6 18 Norte 32 Noroeste 0 1010.8 -0.4 68
2019-01-28 15:00:00 12 17 Norte 32 Noroeste 0 1011.1 0.1 66
2019-01-28 14:00:00 11.6 17 Norte 35 Norte 0 1011.4 1.1 71
2019-01-28 13:00:00 12.2 22 Norte 33 Norte 0 1011.2 1.1 69
2019-01-28 12:00:00 11.3 15 Norte 30 Norte 0.1 1011 1.5 89
2019-01-28 11:00:00 10.2 18 Norte 33 Noroeste 0.2 1010.3 1 98
2019-01-28 10:00:00 9.9 24 Norte 37 Norte 0.4 1010.1 0.9 96
2019-01-28 09:00:00 10.3 26 Noroeste 52 Noroeste 0 1009.5 -0.2 92
2019-01-28 08:00:00 10.9 21 Noroeste 52 Oeste 0.2 1009.3 -0.8 95
2019-01-28 07:00:00 10.8 17 Noroeste 42 Noroeste 0.3 1009.2 -1.5 94
2019-01-28 06:00:00 10.9 20 Noroeste 45 Oeste 0 1009.7 -1 92
2019-01-28 05:00:00 10.8 23 Noroeste 37 Noroeste 0.2 1010.1 -0.8 94
2019-01-28 04:00:00 10.4 15 Noroeste 37 Noroeste 0.6 1010.7 -0.6 94
2019-01-28 03:00:00 10.1 20 Noroeste 39 Noroeste 0 1010.7 -0.4 92
2019-01-28 02:00:00 10.1 21 Noroeste 39 Noroeste 0 1010.9 -0.8 89
2019-01-28 01:00:00 9.9 15 Noroeste 41 Norte 0 1011.3 -0.3 89
2019-01-28 00:00:00 10 19 Noroeste 39 Norte 0 1011.1 -0.3 86
2019-01-27 23:00:00 10.4 20 Noroeste 41 Noroeste 0 1011.7 -0.3 80
2019-01-27 22:00:00 10.5 17 Noroeste 33 Norte 0 1011.6 0.3 79
2019-01-27 21:00:00 10.5 15 Noroeste 33 Noroeste 0 1011.4 0.1 70
2019-01-27 20:00:00 10.6 15 Noroeste 33 Noroeste 0 1012 0.9 69
2019-01-27 19:00:00 10.6 14 Noroeste 35 Noroeste 0 1011.3 0.7 68
2019-01-27 18:00:00 10.9 19 Noroeste 39 Norte 0 1011.3 0.5 62
2019-01-27 17:00:00 11.4 19 Norte 37 Norte 0 1011.1 -0.1 58
2019-01-27 16:00:00 11.3 24 Norte 37 Noroeste 0 1010.6 -0.6 59
2019-01-27 15:00:00 11.7 22 Norte 39 Norte 0 1010.8 -0.2 58
2019-01-27 14:00:00 12 20 Norte 42 Norte 0 1011.2 1.2 60
2019-01-27 13:00:00 11.6 27 Norte 42 Noroeste 0 1011.2 2.1 56
2019-01-27 12:00:00 10.6 22 Norte 58 Norte 0 1011 2.8 73
2019-01-27 11:00:00 9.8 30 Norte 55 Norte 0 1010 2.3 78
2019-01-27 10:00:00 10.1 22 Noroeste 46 Noroeste 0 1009.1 1.7 77
2019-01-27 09:00:00 10.1 24 Noroeste 54 Noroeste 0 1008.2 0.7 74
2019-01-27 08:00:00 9.3 18 Noroeste 46 Noroeste 0 1007.7 0.2 77
2019-01-27 07:00:00 9.5 18 Noroeste 42 Norte 0.2 1007.4 -0.3 76
2019-01-27 06:00:00 9.4 16 Norte 46 Noroeste 0.1 1007.5 0.4 77
2019-01-27 05:00:00 9.7 17 Noroeste 46 Noroeste 0 1007.5 0.2 70
2019-01-27 04:00:00 9.2 33 Norte 52 Noroeste 0 1007.7 0.6 76
2019-01-27 03:00:00 10 19 Noroeste 50 Norte 0 1007.1 0.3 76
2019-01-27 02:00:00 10.3 17 Noroeste 37 Norte 0 1007.3 1.3 79
2019-01-27 01:00:00 10.2 17 Noroeste 37 Norte 0.1 1007.1 0.7 81
2019-01-27 00:00:00 9.2 20 Noroeste 46 Noroeste 1.7 1006.8 -0.3 97
2019-01-26 23:00:00 10 15 Sudoeste 33 Sudoeste 0.2 1006 -1.4 94
2019-01-26 22:00:00 9.9 17 Oeste 28 Sudoeste 0 1006.4 -1 89
2019-01-26 21:00:00 9.2 9 Sudoeste 18 Sudoeste 0 1007.1 -0.3 94
2019-01-26 20:00:00 9.7 8 Oeste 24 Noroeste 0 1007.4 0 87
2019-01-26 19:00:00 10.1 9 Noroeste 30 Noroeste 0 1007.4 -0.3 81
2019-01-26 18:00:00 10.8 15 Noroeste 26 Noroeste 0 1007.4 -1.1 80
2019-01-26 17:00:00 11.8 10 Noroeste 21 Noroeste 0 1007.4 -1.7 74
2019-01-26 16:00:00 12.4 10 Noroeste 18 Oeste 0 1007.7 -1.9 71
2019-01-26 15:00:00 12 11 Noroeste 18 Noroeste 0 1008.5 -1.6 71
2019-01-26 14:00:00 11.2 7 Norte 15 Norte 0 1009.1 -0.8 75
2019-01-26 13:00:00 9.9 6 Sur 22 Sudeste 0 1009.6 -0.8 96
2019-01-26 12:00:00 6.6 8 Sur 18 Sur 0 1010.1 -0.5 99
2019-01-26 11:00:00 2.2 10 Sur 15 Sur 0 1009.9 -0.5 99
2019-01-26 10:00:00 1.5 9 Sur 17 Sur 0 1010.4 0.2 99
2019-01-26 09:00:00 0.6 9 Sur 15 Sur 0 1010.6 0.1 100
2019-01-26 08:00:00 1 9 Sur 13 Sur 0 1010.4 -0.4 99
2019-01-26 07:00:00 1.5 9 Sur 15 Sur 0 1010.2 -0.9 99
2019-01-26 06:00:00 1.8 9 Sur 13 Sur 0 1010.5 -1 99
2019-01-26 05:00:00 1.7 9 Sur -- -- 0 1010.8 -1 99
2019-01-26 04:00:00 2.4 9 Sur 13 Sur 0 1011.1 -1.2 99
2019-01-26 03:00:00 3.3 8 Sur 15 Sur 0 1011.5 -0.6 99
2019-01-26 02:00:00 4.2 5 Sur 11 Sur 0 1011.8 -0.7 99
2019-01-26 01:00:00 3.9 6 Sur 15 Sur 0 1012.3 -0.3 98
2019-01-26 00:00:00 5.4 9 Sur 17 Sur 0 1012.1 -0.6 97
2019-01-25 23:00:00 7.3 7 Sur 18 Este 0 1012.5 -0.5 91
2019-01-25 22:00:00 8.3 0 Calma 8 Este 0 1012.6 -0.4 91
2019-01-25 21:00:00 9.2 6 Este 15 Este 0 1012.7 0.1 88
2019-01-25 20:00:00 9.7 8 Nordeste 13 Norte 0 1013 0.4 84
2019-01-25 19:00:00 10.4 8 Nordeste 24 Nordeste 0 1013 0.4 78
2019-01-25 18:00:00 11.4 10 Norte 22 Nordeste 0 1012.6 0 78
2019-01-25 17:00:00 11.6 11 Norte 21 Norte 0 1012.6 -0.3 80
2019-01-25 16:00:00 11.7 11 Norte 22 Norte 0 1012.6 -0.8 82
2019-01-25 15:00:00 11.9 11 Nordeste 24 Nordeste 0 1012.6 -0.8 78
2019-01-25 14:00:00 12.1 12 Nordeste 21 Norte 0 1012.9 -0.3 79
2019-01-25 13:00:00 11.6 13 Nordeste 22 Nordeste 0 1013.4 0.6 81
2019-01-25 12:00:00 11.6 9 Nordeste 18 Nordeste 0 1013.4 1.4 81
2019-01-25 11:00:00 11 12 Este 18 Nordeste 0 1013.2 1.7 80
2019-01-25 10:00:00 10.4 6 Nordeste 15 Nordeste 0 1012.8 1.5 86
2019-01-25 09:00:00 10 3 Norte 8 Norte 0 1012 0.7 93
2019-01-25 08:00:00 10 3 Noroeste 5 Noroeste 0 1011.5 0.2 94
2019-01-25 07:00:00 10 4 Noroeste 9 Norte 0 1011.3 -0.1 94
2019-01-25 06:00:00 10.1 4 Norte 9 Norte 0 1011.3 0 94
2019-01-25 05:00:00 10.2 5 Norte 11 Nordeste 0 1011.3 -0.1 94
2019-01-25 04:00:00 10.3 7 Norte 15 Norte 0 1011.4 0 94
2019-01-25 03:00:00 10.1 8 Norte 18 Norte 0 1011.3 -0.1 97
2019-01-25 02:00:00 10.2 13 Norte 26 Norte 0 1011.4 0.4 97
2019-01-25 01:00:00 10.6 9 Norte 21 Norte 0 1011.4 0.7 94
2019-01-25 00:00:00 10.8 9 Norte 30 Norte 0 1011.4 1 94
2019-01-24 23:00:00 10.8 8 Norte 15 Norte 0 1011 1.1 99
2019-01-24 22:00:00 10.7 8 Norte 21 Norte 0.1 1010.7 1.4 98
2019-01-24 21:00:00 10.9 11 Norte 22 Norte 0.3 1010.4 1.5 97
2019-01-24 20:00:00 10.9 9 Norte 24 Norte 0 1009.9 1.4 97
2019-01-24 19:00:00 10.9 14 Norte 32 Norte 0 1009.3 1 98
2019-01-24 18:00:00 11.1 17 Norte 32 Norte 0 1008.9 0.8 97
2019-01-24 17:00:00 11.4 15 Norte 33 Norte 0 1008.5 0.4 98
2019-01-24 16:00:00 11.1 17 Norte 37 Norte 0.1 1008.3 0.1 99
2019-01-24 15:00:00 11.3 24 Norte 41 Norte 0 1008.1 -0.1 98
2019-01-24 14:00:00 11.7 22 Norte 41 Norte 0.1 1008.1 0.7 98
2019-01-24 13:00:00 11.6 21 Norte 37 Norte 0.4 1008.2 1.1 98
2019-01-24 12:00:00 12 21 Norte 42 Norte 0 1008.2 1.5 96
2019-01-24 11:00:00 11.6 22 Norte 42 Norte 0 1007.4 1.1 98
2019-01-24 10:00:00 11.3 19 Norte 41 Norte 0 1007.1 1.2 99
2019-01-24 09:00:00 11.2 21 Norte 41 Norte 0.2 1006.7 1.2 99
2019-01-24 08:00:00 11.1 22 Norte 45 Norte 0.2 1006.3 0.9 97
2019-01-24 07:00:00 11.3 21 Norte 42 Noroeste 0.2 1005.9 0.3 98
2019-01-24 06:00:00 11.5 20 Norte 46 Norte 0 1005.5 -0.1 98
2019-01-24 05:00:00 11.6 24 Norte 41 Norte 0 1005.4 -0.5 98
2019-01-24 04:00:00 11.7 26 Norte 52 Norte 0.1 1005.6 -0.4 99
2019-01-24 03:00:00 11.7 24 Norte 50 Norte 0.2 1005.6 -0.2 99
2019-01-24 02:00:00 11.6 24 Norte 46 Norte 0.2 1005.9 0.2 99
2019-01-24 01:00:00 11.4 26 Norte 48 Norte 0.3 1006 0.3 99
2019-01-24 00:00:00 11.6 26 Norte 42 Norte 0.4 1005.8 0.1 99
2019-01-23 23:00:00 11.7 21 Norte 41 Norte 0.3 1005.7 0.6 98
2019-01-23 22:00:00 11.8 22 Norte 42 Noroeste 0.1 1005.7 0.9 96
2019-01-23 21:00:00 12 23 Norte 39 Noroeste 0 1005.7 1 94
2019-01-23 20:00:00 11.7 22 Norte 42 Norte 0 1005.1 0.8 95
2019-01-23 19:00:00 11.8 24 Norte 42 Norte 0 1004.8 0.2 96
2019-01-23 18:00:00 11.8 23 Norte 52 Norte 0.1 1004.7 0.4 97
2019-01-23 17:00:00 11.7 28 Norte 54 Noroeste 0 1004.3 -0.5 98
2019-01-23 16:00:00 12 32 Norte 58 Noroeste 0.1 1004.6 -0.4 98
2019-01-23 15:00:00 11.8 37 Noroeste 59 Noroeste 0.4 1004.3 -1 98
2019-01-23 14:00:00 11.7 33 Norte 55 Norte 0 1004.8 -0.3 98
2019-01-23 13:00:00 11.7 26 Noroeste 48 Noroeste 0.5 1005 0.5 98
2019-01-23 12:00:00 11.3 24 Norte 58 Norte 3.5 1005.3 1.1 98
2019-01-23 11:00:00 11.8 31 Noroeste 63 Norte 0 1005.1 0.9 91
2019-01-23 10:00:00 12 31 Noroeste 59 Noroeste 0 1004.5 0.8 88
2019-01-23 09:00:00 11.8 30 Noroeste 52 Noroeste 0.2 1004.2 0.6 88
2019-01-23 08:00:00 10.7 28 Norte 61 Noroeste 0.1 1004.2 0.7 94
2019-01-23 07:00:00 11.3 27 Noroeste 54 Noroeste 0.2 1003.7 -0.2 94
2019-01-23 06:00:00 10.9 33 Noroeste 71 Noroeste 0.1 1003.6 -0.4 97
2019-01-23 05:00:00 10.6 37 Noroeste 63 Norte 0.1 1003.5 -0.3 98
2019-01-23 04:00:00 10.2 33 Noroeste 67 Noroeste 0.6 1003.9 -0.7 97
2019-01-23 03:00:00 10.8 28 Noroeste 55 Noroeste 0.2 1004 -0.8 92
2019-01-23 02:00:00 11.2 28 Noroeste 55 Oeste 0 1003.8 -1.4 85
2019-01-23 01:00:00 10.6 26 Noroeste 55 Noroeste 0.8 1004.6 -0.9 91
2019-01-23 00:00:00 10.1 20 Noroeste 48 Noroeste 2 1004.8 -0.9 95
2019-01-22 23:00:00 9.8 26 Noroeste 48 Norte 2 1005.2 -0.8 97
2019-01-22 22:00:00 9.8 25 Noroeste 54 Noroeste 2.6 1005.5 -1 96
2019-01-22 21:00:00 10.1 21 Noroeste 46 Noroeste 0.8 1005.7 -0.6 89
2019-01-22 20:00:00 10.4 23 Noroeste 42 Noroeste 0 1006 -0.8 85
2019-01-22 19:00:00 10.1 27 Noroeste 48 Noroeste 0 1006.5 -0.3 85
2019-01-22 18:00:00 10.6 19 Noroeste 37 Noroeste 0 1006.3 -1.1 77
2019-01-22 17:00:00 10.2 23 Noroeste 45 Noroeste 0 1006.8 -1.5 81
2019-01-22 16:00:00 10 13 Noroeste 37 Norte 0 1006.8 -2.2 81
2019-01-22 15:00:00 9.7 15 Noroeste 33 Norte 0 1007.4 -1.4 84
2019-01-22 14:00:00 10.5 20 Norte 35 Noroeste 0 1008.3 0 70
2019-01-22 13:00:00 10.4 17 Norte 35 Norte 0 1009 1.5 75
2019-01-22 12:00:00 10.2 17 Norte 30 Norte 0.1 1008.8 1.1 77
2019-01-22 11:00:00 9.1 22 Norte 54 Noroeste 0.5 1008.3 0.2 97
2019-01-22 10:00:00 10 15 Noroeste 39 Oeste 0.8 1007.5 -1.3 95
2019-01-22 09:00:00 9.3 18 Oeste 30 Oeste 0 1007.7 -1.6 92
2019-01-22 08:00:00 8.6 14 Oeste 24 Oeste 0.4 1008.1 -2 95
2019-01-22 07:00:00 7.7 12 Sudoeste 21 Oeste 0 1008.8 -2.1 96
2019-01-22 06:00:00 7.8 11 Oeste 22 Oeste 0.5 1009.3 -2 94
2019-01-22 05:00:00 8.6 14 Oeste 22 Oeste 0 1010.1 -2 84
2019-01-22 04:00:00 8.6 13 Oeste 24 Oeste 0 1010.9 -1.6 85
2019-01-22 03:00:00 8.3 13 Oeste 22 Noroeste 0 1011.3 -1 89
2019-01-22 02:00:00 8.6 10 Oeste 26 Oeste 0 1012.1 -0.9 89
2019-01-22 01:00:00 9.2 8 Noroeste 26 Noroeste 0 1012.5 -0.2 87
2019-01-22 00:00:00 8.9 6 Oeste 13 Sudoeste 0 1012.3 -0.3 84
2019-01-21 23:00:00 7.6 4 Sudoeste 13 Sur 0 1013 -0.6 93
2019-01-21 22:00:00 8.1 2 Oeste 13 Sur 0 1012.7 -0.8 87
2019-01-21 21:00:00 8.3 10 Sur 18 Sur 0 1012.6 -0.3 89
2019-01-21 20:00:00 9.4 5 Oeste 13 Oeste 0 1013.6 0.8 82
2019-01-21 19:00:00 9.5 5 Noroeste 11 Noroeste 0 1013.5 0.4 82
2019-01-21 18:00:00 10.1 6 Oeste 13 Norte 0 1012.9 -0.6 77
2019-01-21 17:00:00 11.3 8 Norte 15 Noroeste 0 1012.8 -1.3 68
2019-01-21 16:00:00 11.8 8 Norte 17 Noroeste 0 1013.1 -1.5 70
2019-01-21 15:00:00 11.8 8 Norte 13 Norte 0 1013.5 -1.2 65
2019-01-21 14:00:00 11 5 Norte 9 Nordeste 0 1014.1 -0.5 73
2019-01-21 13:00:00 10.1 4 Norte 9 Sudeste 0 1014.6 0.4 88
2019-01-21 12:00:00 9.3 6 Sur 11 Sudeste 0 1014.7 0.9 97
2019-01-21 11:00:00 6.5 3 Sudoeste 9 Sur 0 1014.6 1 99
2019-01-21 10:00:00 4.3 7 Sur 11 Sur 0 1014.2 0.9 99
2019-01-21 09:00:00 3.9 5 Sudoeste 9 Sudoeste 0 1013.8 0.7 99
2019-01-21 08:00:00 5.1 0 Calma 11 Sudeste 0 1013.6 0.5 98
2019-01-21 07:00:00 5.6 3 Sur 11 Sudeste 0.4 1013.3 0.2 98
2019-01-21 06:00:00 5.4 5 Sur 8 Sur 0.1 1013.1 0 98
2019-01-21 05:00:00 6.4 4 Oeste 9 Sur 0 1013.1 -0.3 98
2019-01-21 04:00:00 7 5 Sur 11 Norte 0 1013.1 0 96
2019-01-21 03:00:00 8 5 Noroeste 11 Norte 1.8 1013.1 0.4 94
2019-01-21 02:00:00 8.5 7 Norte 24 Nordeste 0.3 1013.4 1.1 91
2019-01-21 01:00:00 9.3 9 Nordeste 26 Norte 0.5 1013.1 1.2 86
2019-01-21 00:00:00 9.9 9 Norte 32 Norte 0 1012.7 0.9 83
2019-01-20 23:00:00 10 15 Norte 28 Norte 0 1012.3 1 79
2019-01-20 22:00:00 10.3 12 Norte 28 Norte 0 1011.9 1.3 84
2019-01-20 21:00:00 9.4 10 Norte 30 Norte 0 1011.8 1.6 85
2019-01-20 20:00:00 9.1 19 Norte 37 Norte 0.5 1011.3 1.8 94
2019-01-20 19:00:00 10.4 14 Norte 33 Norte 0 1010.6 1.5 81
2019-01-20 18:00:00 10.9 21 Norte 39 Norte 0 1010.2 1.3 79
2019-01-20 17:00:00 11.1 22 Norte 39 Norte 0 1009.5 0.5 79
2019-01-20 16:00:00 10.3 20 Norte 39 Norte 0.6 1009.1 0 90
2019-01-20 15:00:00 11.4 22 Norte 45 Norte 0.1 1008.9 0.1 78
2019-01-20 14:00:00 11.7 24 Norte 42 Norte 0 1009 1.3 77
2019-01-20 13:00:00 10.3 24 Norte 45 Norte 0.9 1009.1 2.2 89
2019-01-20 12:00:00 11.1 20 Norte 37 Norte 1.1 1008.8 2.6 82
2019-01-20 11:00:00 10.9 22 Norte 42 Norte 0.1 1007.7 2.2 82
2019-01-20 10:00:00 10.4 22 Norte 41 Norte 0.6 1006.9 1.9 84
2019-01-20 09:00:00 10.4 22 Norte 39 Norte 0 1006.2 1.4 81
2019-01-20 08:00:00 10.2 22 Norte 39 Norte 0 1005.5 0.8 83
2019-01-20 07:00:00 9.8 18 Norte 33 Norte 0.5 1005 0.5 86
2019-01-20 06:00:00 9.9 15 Norte 37 Norte 0 1004.8 1.1 80
2019-01-20 05:00:00 10.3 19 Norte 33 Norte 0 1004.7 1.5 76
2019-01-20 04:00:00 9.7 18 Norte 41 Norte 0 1004.5 1.7 78
2019-01-20 03:00:00 10.4 19 Norte 39 Norte 0 1003.7 1.8 73
2019-01-20 02:00:00 10.3 19 Norte 39 Norte 0 1003.2 2.2 73
2019-01-20 01:00:00 10.6 16 Norte 39 Norte 0 1002.8 2.6 77
2019-01-20 00:00:00 10.6 23 Norte 52 Norte 0.1 1001.9 3.1 79
2019-01-19 23:00:00 10.3 17 Norte 37 Norte 0.2 1001 3.5 86
2019-01-19 22:00:00 9.8 13 Norte 41 Nordeste 0 1000.2 5 88
2019-01-19 21:00:00 10.1 24 Norte 45 Norte 0.3 998.8 5.7 93
2019-01-19 20:00:00 10.9 19 Norte 45 Norte 0 997.5 4.7 85
2019-01-19 19:00:00 10.6 28 Norte 50 Norte 0.8 995.2 2.4 98
2019-01-19 18:00:00 12.4 15 Noroeste 30 Noroeste 1.5 993.1 -0.3 98
2019-01-19 17:00:00 11.9 5 Sur 9 Sur 1.7 992.8 -1.7 98
2019-01-19 16:00:00 11.7 10 Sur 21 Sudeste 3.2 992.8 -2.7 97
2019-01-19 15:00:00 11.9 10 Sudeste 13 Sudeste 0.2 993.4 -2.7 96
2019-01-19 14:00:00 11 10 Sur 17 Sudoeste 1.7 994.5 -1.9 96
2019-01-19 13:00:00 10.8 16 Sudoeste 32 Sudoeste 5.2 995.5 -1.1 94
2019-01-19 12:00:00 10.5 23 Sur 42 Sudoeste 0.9 996.1 -0.8 91
2019-01-19 11:00:00 9.7 34 Sudoeste 55 Sudoeste 1.7 996.4 -1.2 91
2019-01-19 10:00:00 9.7 33 Sudoeste 50 Sur 1.5 996.6 -2.2 90
2019-01-19 09:00:00 9.7 24 Sudoeste 46 Sur 0.1 996.9 -3.7 88
2019-01-19 08:00:00 9.7 26 Sur 48 Sudeste 0.2 997.6 -4.2 88
2019-01-19 07:00:00 9 24 Sur 35 Sur 0.8 998.8 -4 92
2019-01-19 06:00:00 8.9 12 Sur 22 Sur 0.8 1000.6 -2.7 93
2019-01-19 05:00:00 9 14 Sur 26 Sudoeste 0.5 1001.8 -2.3 92
2019-01-19 04:00:00 9 15 Sudoeste 22 Sudoeste 0.1 1002.8 -1.9 92
2019-01-19 03:00:00 8.9 12 Sur 26 Sudoeste 0.8 1003.3 -1.7 93
2019-01-19 02:00:00 8.9 18 Sudoeste 28 Sudoeste 0.2 1004.1 -1 92
2019-01-19 01:00:00 8.8 18 Sudoeste 30 Sudoeste 0 1004.7 -0.4 92
2019-01-19 00:00:00 7.8 8 Sur 21 Sur 0 1005 -0.2 98